SBRP Airport Information

Runway Information
Runway 18 Length 6890 ft width 148 ft
Elevation 0 ft Threshold 0 ft Heading 0
Runway 36 Length 6890 ft Width 148 ft
Elevation 0 ft Threshold 0 ft Heading 0
Airport Frequencies
Type AFIS Name RIBEIRAO R Frequency 118 MHZ
Type APP Name RIBEIRAO A Frequency 119.55 MHZ
Type ATIS Name ATIS Frequency 127.425 MHZ
Type TWR Name RIBEIRAO T Frequency 118 MHZ
Airport Navaids
Type NDB Name Ribeirao Frequency 330 KHZ
Airport Weather Information & NOTAM
ADDS - METARS form results

(0124 UTC 26 February 2018)
 
METAR text: SBRP 260100Z 00000KT CAVOK 24/20 Q1015
Conditions at: SBRP (LEITE LOPES/RIBE, BR) observed 0100 UTC 26 February 2018
Temperature: 24.0°C (75°F)
Dewpoint: 20.0°C (68°F) [RH = 78%]
Pressure (altimeter): 29.97 inches Hg (1015.0 mb)
Winds: calm
Visibility: 6 or more miles (10+ km)
Ceiling: ceiling and visibility are OK
Clouds: unknown
Weather: no significant weather observed at this time